sensor_id;sensor_type;location;lat;lon;timestamp;P1;durP1;ratioP1;P2;durP2;ratioP2
20495;SDS011;10406;54.132;17.968;2022-08-04T00:01:50;17.77;;;7.40;;
20495;SDS011;10406;54.132;17.968;2022-08-04T00:07:20;24.67;;;10.73;;
20495;SDS011;10406;54.132;17.968;2022-08-04T00:12:46;17.10;;;8.50;;
20495;SDS011;10406;54.132;17.968;2022-08-04T00:18:10;13.57;;;7.20;;
20495;SDS011;10406;54.132;17.968;2022-08-04T00:23:44;14.30;;;7.40;;
20495;SDS011;10406;54.132;17.968;2022-08-04T00:29:06;13.67;;;6.77;;
20495;SDS011;10406;54.132;17.968;2022-08-04T00:34:29;12.23;;;6.70;;
20495;SDS011;10406;54.132;17.968;2022-08-04T00:39:52;11.98;;;6.70;;
20495;SDS011;10406;54.132;17.968;2022-08-04T00:45:19;14.85;;;7.13;;
20495;SDS011;10406;54.132;17.968;2022-08-04T00:50:59;14.60;;;6.83;;
20495;SDS011;10406;54.132;17.968;2022-08-04T00:56:36;15.33;;;6.67;;
20495;SDS011;10406;54.132;17.968;2022-08-04T01:02:06;15.63;;;7.03;;
20495;SDS011;10406;54.132;17.968;2022-08-04T01:07:56;23.60;;;10.30;;
20495;SDS011;10406;54.132;17.968;2022-08-04T01:13:34;17.97;;;8.20;;
20495;SDS011;10406;54.132;17.968;2022-08-04T01:19:12;24.10;;;10.83;;
20495;SDS011;10406;54.132;17.968;2022-08-04T01:24:58;31.43;;;11.47;;
20495;SDS011;10406;54.132;17.968;2022-08-04T01:30:31;20.80;;;8.00;;
20495;SDS011;10406;54.132;17.968;2022-08-04T01:35:55;33.97;;;11.63;;
20495;SDS011;10406;54.132;17.968;2022-08-04T01:41:21;24.43;;;9.83;;
20495;SDS011;10406;54.132;17.968;2022-08-04T01:46:46;36.30;;;12.70;;
20495;SDS011;10406;54.132;17.968;2022-08-04T01:52:10;37.53;;;14.73;;
20495;SDS011;10406;54.132;17.968;2022-08-04T01:57:34;32.90;;;14.07;;
20495;SDS011;10406;54.132;17.968;2022-08-04T02:03:02;24.10;;;9.33;;
20495;SDS011;10406;54.132;17.968;2022-08-04T02:08:26;28.97;;;10.53;;
20495;SDS011;10406;54.132;17.968;2022-08-04T02:13:56;32.20;;;8.80;;
20495;SDS011;10406;54.132;17.968;2022-08-04T02:19:23;30.90;;;11.77;;
20495;SDS011;10406;54.132;17.968;2022-08-04T02:25:02;34.73;;;11.70;;
20495;SDS011;10406;54.132;17.968;2022-08-04T02:30:28;30.97;;;11.20;;
20495;SDS011;10406;54.132;17.968;2022-08-04T02:35:55;47.27;;;18.47;;
20495;SDS011;10406;54.132;17.968;2022-08-04T02:41:24;52.93;;;19.60;;
20495;SDS011;10406;54.132;17.968;2022-08-04T02:46:46;32.10;;;13.23;;
20495;SDS011;10406;54.132;17.968;2022-08-04T02:52:12;25.23;;;10.53;;
20495;SDS011;10406;54.132;17.968;2022-08-04T02:57:35;22.33;;;10.40;;
20495;SDS011;10406;54.132;17.968;2022-08-04T03:03:01;21.80;;;10.10;;
20495;SDS011;10406;54.132;17.968;2022-08-04T03:14:43;20.33;;;9.60;;
20495;SDS011;10406;54.132;17.968;2022-08-04T03:20:27;52.53;;;19.45;;
20495;SDS011;10406;54.132;17.968;2022-08-04T03:26:10;28.77;;;12.53;;
20495;SDS011;10406;54.132;17.968;2022-08-04T03:32:20;29.93;;;12.37;;
20495;SDS011;10406;54.132;17.968;2022-08-04T03:38:11;38.27;;;13.87;;
20495;SDS011;10406;54.132;17.968;2022-08-04T03:43:57;29.83;;;10.43;;
20495;SDS011;10406;54.132;17.968;2022-08-04T03:49:54;21.33;;;9.50;;
20495;SDS011;10406;54.132;17.968;2022-08-04T03:55:45;17.63;;;8.73;;
20495;SDS011;10406;54.132;17.968;2022-08-04T04:01:34;18.23;;;9.03;;
20495;SDS011;10406;54.132;17.968;2022-08-04T04:07:25;19.50;;;9.90;;
20495;SDS011;10406;54.132;17.968;2022-08-04T04:13:14;18.03;;;9.47;;
20495;SDS011;10406;54.132;17.968;2022-08-04T04:24:48;30.15;;;11.10;;
20495;SDS011;10406;54.132;17.968;2022-08-04T04:30:24;20.27;;;9.93;;
20495;SDS011;10406;54.132;17.968;2022-08-04T04:35:54;18.27;;;9.25;;
20495;SDS011;10406;54.132;17.968;2022-08-04T04:41:26;25.42;;;11.70;;
20495;SDS011;10406;54.132;17.968;2022-08-04T04:47:17;21.63;;;11.18;;
20495;SDS011;10406;54.132;17.968;2022-08-04T05:05:01;18.13;;;9.80;;
20495;SDS011;10406;54.132;17.968;2022-08-04T05:10:48;20.98;;;9.07;;
20495;SDS011;10406;54.132;17.968;2022-08-04T05:16:31;16.85;;;9.45;;
20495;SDS011;10406;54.132;17.968;2022-08-04T05:22:00;16.52;;;8.93;;
20495;SDS011;10406;54.132;17.968;2022-08-04T05:27:31;17.85;;;8.63;;
20495;SDS011;10406;54.132;17.968;2022-08-04T05:33:08;15.23;;;9.00;;
20495;SDS011;10406;54.132;17.968;2022-08-04T05:38:36;12.75;;;8.45;;
20495;SDS011;10406;54.132;17.968;2022-08-04T05:44:07;18.10;;;9.27;;
20495;SDS011;10406;54.132;17.968;2022-08-04T05:49:45;16.58;;;8.57;;
20495;SDS011;10406;54.132;17.968;2022-08-04T05:55:09;18.58;;;9.65;;
20495;SDS011;10406;54.132;17.968;2022-08-04T06:00:33;15.55;;;8.50;;
20495;SDS011;10406;54.132;17.968;2022-08-04T06:05:55;16.50;;;8.20;;
20495;SDS011;10406;54.132;17.968;2022-08-04T06:11:18;12.70;;;7.57;;
20495;SDS011;10406;54.132;17.968;2022-08-04T06:16:42;15.35;;;8.50;;
20495;SDS011;10406;54.132;17.968;2022-08-04T06:22:10;15.43;;;8.63;;
20495;SDS011;10406;54.132;17.968;2022-08-04T06:27:40;15.77;;;7.70;;
20495;SDS011;10406;54.132;17.968;2022-08-04T06:33:08;11.98;;;7.00;;
20495;SDS011;10406;54.132;17.968;2022-08-04T06:38:56;13.52;;;8.02;;
20495;SDS011;10406;54.132;17.968;2022-08-04T06:44:19;17.90;;;7.40;;
20495;SDS011;10406;54.132;17.968;2022-08-04T06:49:57;23.77;;;11.02;;
20495;SDS011;10406;54.132;17.968;2022-08-04T07:22:14;10.63;;;6.18;;
20495;SDS011;10406;54.132;17.968;2022-08-04T07:27:35;11.27;;;6.25;;
20495;SDS011;10406;54.132;17.968;2022-08-04T07:32:56;13.73;;;6.20;;
20495;SDS011;10406;54.132;17.968;2022-08-04T07:38:19;13.05;;;5.65;;
20495;SDS011;10406;54.132;17.968;2022-08-04T07:43:47;10.82;;;5.68;;
20495;SDS011;10406;54.132;17.968;2022-08-04T07:49:17;9.10;;;5.57;;
20495;SDS011;10406;54.132;17.968;2022-08-04T08:08:29;7.40;;;5.10;;
20495;SDS011;10406;54.132;17.968;2022-08-04T09:11:43;12.63;;;5.10;;
20495;SDS011;10406;54.132;17.968;2022-08-04T09:17:48;7.72;;;4.63;;
20495;SDS011;10406;54.132;17.968;2022-08-04T09:23:35;10.05;;;4.43;;
20495;SDS011;10406;54.132;17.968;2022-08-04T09:29:18;8.20;;;4.43;;
20495;SDS011;10406;54.132;17.968;2022-08-04T09:34:54;8.88;;;4.32;;
20495;SDS011;10406;54.132;17.968;2022-08-04T09:40:36;12.35;;;4.57;;
20495;SDS011;10406;54.132;17.968;2022-08-04T09:46:24;13.18;;;4.55;;
20495;SDS011;10406;54.132;17.968;2022-08-04T09:51:56;13.75;;;4.43;;
20495;SDS011;10406;54.132;17.968;2022-08-04T09:58:13;18.17;;;7.15;;
20495;SDS011;10406;54.132;17.968;2022-08-04T10:04:01;6.03;;;4.53;;
20495;SDS011;10406;54.132;17.968;2022-08-04T10:09:59;6.25;;;4.47;;
20495;SDS011;10406;54.132;17.968;2022-08-04T10:15:39;10.10;;;4.32;;
20495;SDS011;10406;54.132;17.968;2022-08-04T10:21:10;6.47;;;4.25;;
20495;SDS011;10406;54.132;17.968;2022-08-04T10:26:49;4.63;;;4.00;;
20495;SDS011;10406;54.132;17.968;2022-08-04T10:32:24;6.75;;;4.43;;
20495;SDS011;10406;54.132;17.968;2022-08-04T10:38:08;11.18;;;4.15;;
20495;SDS011;10406;54.132;17.968;2022-08-04T10:44:15;6.30;;;3.92;;
20495;SDS011;10406;54.132;17.968;2022-08-04T10:49:54;8.25;;;4.10;;
20495;SDS011;10406;54.132;17.968;2022-08-04T10:55:22;8.30;;;4.35;;
20495;SDS011;10406;54.132;17.968;2022-08-04T11:01:16;10.75;;;4.10;;
20495;SDS011;10406;54.132;17.968;2022-08-04T11:06:49;11.48;;;3.80;;
20495;SDS011;10406;54.132;17.968;2022-08-04T11:12:37;5.32;;;3.80;;
20495;SDS011;10406;54.132;17.968;2022-08-04T11:24:25;8.07;;;3.92;;
20495;SDS011;10406;54.132;17.968;2022-08-04T11:30:17;4.28;;;3.80;;
20495;SDS011;10406;54.132;17.968;2022-08-04T12:01:24;9.32;;;5.05;;
20495;SDS011;10406;54.132;17.968;2022-08-04T12:07:13;12.45;;;4.32;;
20495;SDS011;10406;54.132;17.968;2022-08-04T12:12:42;7.20;;;3.78;;
20495;SDS011;10406;54.132;17.968;2022-08-04T12:24:43;11.00;;;4.25;;
20495;SDS011;10406;54.132;17.968;2022-08-04T12:30:13;6.55;;;4.00;;
20495;SDS011;10406;54.132;17.968;2022-08-04T12:35:42;7.88;;;4.85;;
20495;SDS011;10406;54.132;17.968;2022-08-04T12:41:11;5.97;;;4.15;;
20495;SDS011;10406;54.132;17.968;2022-08-04T12:46:36;8.20;;;4.10;;
20495;SDS011;10406;54.132;17.968;2022-08-04T12:51:58;9.13;;;4.75;;
20495;SDS011;10406;54.132;17.968;2022-08-04T12:57:22;14.93;;;5.55;;
20495;SDS011;10406;54.132;17.968;2022-08-04T13:02:44;5.32;;;4.38;;
20495;SDS011;10406;54.132;17.968;2022-08-04T13:08:14;9.05;;;4.68;;
20495;SDS011;10406;54.132;17.968;2022-08-04T13:13:49;12.73;;;4.95;;
20495;SDS011;10406;54.132;17.968;2022-08-04T13:19:13;6.97;;;4.25;;
20495;SDS011;10406;54.132;17.968;2022-08-04T13:24:35;10.20;;;5.13;;
20495;SDS011;10406;54.132;17.968;2022-08-04T13:29:59;11.45;;;4.55;;
20495;SDS011;10406;54.132;17.968;2022-08-04T13:35:21;12.80;;;4.43;;
20495;SDS011;10406;54.132;17.968;2022-08-04T13:40:44;11.05;;;4.32;;
20495;SDS011;10406;54.132;17.968;2022-08-04T13:46:08;10.38;;;4.22;;
20495;SDS011;10406;54.132;17.968;2022-08-04T13:51:34;6.18;;;4.10;;
20495;SDS011;10406;54.132;17.968;2022-08-04T13:56:57;8.98;;;4.25;;
20495;SDS011;10406;54.132;17.968;2022-08-04T14:02:25;6.72;;;4.40;;
20495;SDS011;10406;54.132;17.968;2022-08-04T14:07:59;12.00;;;4.18;;
20495;SDS011;10406;54.132;17.968;2022-08-04T14:13:29;6.60;;;4.13;;
20495;SDS011;10406;54.132;17.968;2022-08-04T14:18:57;10.80;;;4.70;;
20495;SDS011;10406;54.132;17.968;2022-08-04T14:24:37;11.95;;;5.43;;
20495;SDS011;10406;54.132;17.968;2022-08-04T14:29:58;8.48;;;4.72;;
20495;SDS011;10406;54.132;17.968;2022-08-04T14:35:23;10.68;;;5.30;;
20495;SDS011;10406;54.132;17.968;2022-08-04T14:40:44;10.60;;;4.30;;
20495;SDS011;10406;54.132;17.968;2022-08-04T14:46:08;9.85;;;4.35;;
20495;SDS011;10406;54.132;17.968;2022-08-04T14:51:38;5.28;;;4.18;;
20495;SDS011;10406;54.132;17.968;2022-08-04T14:57:02;5.35;;;4.03;;
20495;SDS011;10406;54.132;17.968;2022-08-04T15:02:24;11.57;;;4.60;;
20495;SDS011;10406;54.132;17.968;2022-08-04T15:07:49;10.98;;;4.60;;
20495;SDS011;10406;54.132;17.968;2022-08-04T15:13:11;9.30;;;4.72;;
20495;SDS011;10406;54.132;17.968;2022-08-04T15:18:32;10.30;;;4.13;;
20495;SDS011;10406;54.132;17.968;2022-08-04T15:23:55;10.00;;;5.00;;
20495;SDS011;10406;54.132;17.968;2022-08-04T15:29:18;6.15;;;4.00;;
20495;SDS011;10406;54.132;17.968;2022-08-04T15:34:50;8.10;;;3.85;;
20495;SDS011;10406;54.132;17.968;2022-08-04T15:40:15;6.63;;;4.32;;
20495;SDS011;10406;54.132;17.968;2022-08-04T15:45:46;7.18;;;4.47;;
20495;SDS011;10406;54.132;17.968;2022-08-04T15:51:10;9.57;;;4.50;;
20495;SDS011;10406;54.132;17.968;2022-08-04T15:56:46;12.45;;;4.72;;
20495;SDS011;10406;54.132;17.968;2022-08-04T16:08:09;6.80;;;4.43;;
20495;SDS011;10406;54.132;17.968;2022-08-04T16:13:40;5.88;;;4.38;;
20495;SDS011;10406;54.132;17.968;2022-08-04T16:19:27;10.88;;;5.63;;
20495;SDS011;10406;54.132;17.968;2022-08-04T16:24:53;10.05;;;5.07;;
20495;SDS011;10406;54.132;17.968;2022-08-04T16:30:20;14.57;;;5.65;;
20495;SDS011;10406;54.132;17.968;2022-08-04T16:35:49;9.35;;;4.75;;
20495;SDS011;10406;54.132;17.968;2022-08-04T16:41:10;15.55;;;7.03;;
20495;SDS011;10406;54.132;17.968;2022-08-04T16:46:40;14.80;;;6.32;;
20495;SDS011;10406;54.132;17.968;2022-08-04T16:52:04;18.02;;;7.80;;
20495;SDS011;10406;54.132;17.968;2022-08-04T16:57:26;15.20;;;5.88;;
20495;SDS011;10406;54.132;17.968;2022-08-04T17:02:51;17.20;;;6.50;;
20495;SDS011;10406;54.132;17.968;2022-08-04T17:08:23;10.30;;;5.93;;
20495;SDS011;10406;54.132;17.968;2022-08-04T17:13:49;15.10;;;6.05;;
20495;SDS011;10406;54.132;17.968;2022-08-04T17:19:12;11.90;;;5.97;;
20495;SDS011;10406;54.132;17.968;2022-08-04T17:24:34;15.23;;;6.18;;
20495;SDS011;10406;54.132;17.968;2022-08-04T17:29:58;15.18;;;6.90;;
20495;SDS011;10406;54.132;17.968;2022-08-04T17:35:20;11.73;;;6.00;;
20495;SDS011;10406;54.132;17.968;2022-08-04T17:40:50;16.48;;;6.72;;
20495;SDS011;10406;54.132;17.968;2022-08-04T17:46:18;10.90;;;6.45;;
20495;SDS011;10406;54.132;17.968;2022-08-04T17:51:44;14.20;;;7.07;;
20495;SDS011;10406;54.132;17.968;2022-08-04T17:57:13;22.27;;;7.90;;
20495;SDS011;10406;54.132;17.968;2022-08-04T18:02:34;14.10;;;6.85;;
20495;SDS011;10406;54.132;17.968;2022-08-04T18:08:06;13.70;;;7.22;;
20495;SDS011;10406;54.132;17.968;2022-08-04T18:13:27;14.18;;;7.10;;
20495;SDS011;10406;54.132;17.968;2022-08-04T18:19:07;21.20;;;8.52;;
20495;SDS011;10406;54.132;17.968;2022-08-04T18:24:31;21.33;;;8.32;;
20495;SDS011;10406;54.132;17.968;2022-08-04T18:29:55;17.17;;;7.65;;
20495;SDS011;10406;54.132;17.968;2022-08-04T18:35:17;13.73;;;8.43;;
20495;SDS011;10406;54.132;17.968;2022-08-04T18:40:39;15.85;;;8.75;;
20495;SDS011;10406;54.132;17.968;2022-08-04T18:46:00;18.33;;;7.75;;
20495;SDS011;10406;54.132;17.968;2022-08-04T18:51:22;16.88;;;8.18;;
20495;SDS011;10406;54.132;17.968;2022-08-04T18:56:45;14.18;;;7.95;;
20495;SDS011;10406;54.132;17.968;2022-08-04T19:02:07;16.75;;;8.93;;
20495;SDS011;10406;54.132;17.968;2022-08-04T19:07:28;17.52;;;8.77;;
20495;SDS011;10406;54.132;17.968;2022-08-04T19:12:50;22.42;;;9.57;;
20495;SDS011;10406;54.132;17.968;2022-08-04T19:18:12;21.55;;;9.32;;
20495;SDS011;10406;54.132;17.968;2022-08-04T19:23:33;19.50;;;10.13;;
20495;SDS011;10406;54.132;17.968;2022-08-04T19:28:55;23.92;;;9.82;;
20495;SDS011;10406;54.132;17.968;2022-08-04T19:34:17;21.77;;;11.20;;
20495;SDS011;10406;54.132;17.968;2022-08-04T19:39:38;21.95;;;10.55;;
20495;SDS011;10406;54.132;17.968;2022-08-04T19:45:01;33.55;;;15.32;;
20495;SDS011;10406;54.132;17.968;2022-08-04T19:50:22;26.38;;;11.32;;
20495;SDS011;10406;54.132;17.968;2022-08-04T19:55:44;24.20;;;10.35;;
20495;SDS011;10406;54.132;17.968;2022-08-04T20:01:06;22.15;;;10.43;;
20495;SDS011;10406;54.132;17.968;2022-08-04T20:06:45;23.25;;;11.40;;
20495;SDS011;10406;54.132;17.968;2022-08-04T20:12:07;20.15;;;10.80;;
20495;SDS011;10406;54.132;17.968;2022-08-04T20:17:30;20.60;;;10.18;;
20495;SDS011;10406;54.132;17.968;2022-08-04T20:22:52;25.73;;;12.27;;
20495;SDS011;10406;54.132;17.968;2022-08-04T20:28:13;23.70;;;12.00;;
20495;SDS011;10406;54.132;17.968;2022-08-04T20:33:35;27.45;;;13.05;;
20495;SDS011;10406;54.132;17.968;2022-08-04T20:38:56;28.83;;;11.18;;
20495;SDS011;10406;54.132;17.968;2022-08-04T20:44:19;48.35;;;20.23;;
20495;SDS011;10406;54.132;17.968;2022-08-04T20:49:41;118.10;;;51.60;;
20495;SDS011;10406;54.132;17.968;2022-08-04T20:55:03;38.80;;;18.25;;
20495;SDS011;10406;54.132;17.968;2022-08-04T21:00:27;19.55;;;10.63;;
20495;SDS011;10406;54.132;17.968;2022-08-04T21:05:49;20.90;;;10.60;;
20495;SDS011;10406;54.132;17.968;2022-08-04T21:11:11;23.92;;;11.63;;
20495;SDS011;10406;54.132;17.968;2022-08-04T21:16:32;22.08;;;11.88;;
20495;SDS011;10406;54.132;17.968;2022-08-04T21:21:54;24.25;;;11.50;;
20495;SDS011;10406;54.132;17.968;2022-08-04T21:27:15;24.27;;;11.82;;
20495;SDS011;10406;54.132;17.968;2022-08-04T21:32:36;22.30;;;11.52;;
20495;SDS011;10406;54.132;17.968;2022-08-04T21:38:16;20.58;;;11.07;;
20495;SDS011;10406;54.132;17.968;2022-08-04T21:43:37;18.15;;;10.20;;
20495;SDS011;10406;54.132;17.968;2022-08-04T21:49:04;19.52;;;11.07;;
20495;SDS011;10406;54.132;17.968;2022-08-04T21:54:29;23.02;;;10.45;;
20495;SDS011;10406;54.132;17.968;2022-08-04T21:59:52;22.17;;;10.88;;
20495;SDS011;10406;54.132;17.968;2022-08-04T22:05:15;21.65;;;9.52;;
20495;SDS011;10406;54.132;17.968;2022-08-04T22:10:37;21.40;;;9.82;;
20495;SDS011;10406;54.132;17.968;2022-08-04T22:15:59;16.67;;;9.27;;
20495;SDS011;10406;54.132;17.968;2022-08-04T22:21:20;16.42;;;8.93;;
20495;SDS011;10406;54.132;17.968;2022-08-04T22:26:43;24.80;;;8.95;;
20495;SDS011;10406;54.132;17.968;2022-08-04T22:32:04;15.10;;;9.15;;
20495;SDS011;10406;54.132;17.968;2022-08-04T22:37:28;18.92;;;9.10;;
20495;SDS011;10406;54.132;17.968;2022-08-04T22:42:51;16.33;;;8.77;;
20495;SDS011;10406;54.132;17.968;2022-08-04T22:48:12;16.15;;;8.20;;
20495;SDS011;10406;54.132;17.968;2022-08-04T22:53:34;18.17;;;8.73;;
20495;SDS011;10406;54.132;17.968;2022-08-04T22:58:57;18.23;;;8.30;;
20495;SDS011;10406;54.132;17.968;2022-08-04T23:04:17;13.70;;;8.40;;
20495;SDS011;10406;54.132;17.968;2022-08-04T23:09:41;15.98;;;9.00;;
20495;SDS011;10406;54.132;17.968;2022-08-04T23:15:06;16.27;;;8.40;;
20495;SDS011;10406;54.132;17.968;2022-08-04T23:20:28;23.30;;;10.00;;
20495;SDS011;10406;54.132;17.968;2022-08-04T23:25:49;16.38;;;8.45;;
20495;SDS011;10406;54.132;17.968;2022-08-04T23:31:12;26.45;;;9.32;;
20495;SDS011;10406;54.132;17.968;2022-08-04T23:36:33;21.35;;;8.93;;
20495;SDS011;10406;54.132;17.968;2022-08-04T23:42:01;21.13;;;9.48;;
20495;SDS011;10406;54.132;17.968;2022-08-04T23:47:24;23.52;;;8.55;;
20495;SDS011;10406;54.132;17.968;2022-08-04T23:52:45;16.60;;;8.40;;
20495;SDS011;10406;54.132;17.968;2022-08-04T23:58:08;18.38;;;8.60;;
